sensor_id;sensor_type;location;lat;lon;timestamp;P1;durP1;ratioP1;P2;durP2;ratioP2
15748;SDS011;7976;52.526;13.326;2024-03-08T00:00:31;26.92;;;10.48;;
15748;SDS011;7976;52.526;13.326;2024-03-08T00:03:01;26.65;;;9.90;;
15748;SDS011;7976;52.526;13.326;2024-03-08T00:05:29;31.27;;;12.20;;
15748;SDS011;7976;52.526;13.326;2024-03-08T00:07:56;27.95;;;10.52;;
15748;SDS011;7976;52.526;13.326;2024-03-08T00:10:25;25.15;;;9.85;;
15748;SDS011;7976;52.526;13.326;2024-03-08T00:12:53;31.10;;;10.40;;
15748;SDS011;7976;52.526;13.326;2024-03-08T00:15:24;27.92;;;10.75;;
15748;SDS011;7976;52.526;13.326;2024-03-08T00:18:01;28.95;;;10.00;;
15748;SDS011;7976;52.526;13.326;2024-03-08T00:20:28;29.65;;;9.60;;
15748;SDS011;7976;52.526;13.326;2024-03-08T00:22:55;28.38;;;10.48;;
15748;SDS011;7976;52.526;13.326;2024-03-08T00:25:23;30.83;;;10.68;;
15748;SDS011;7976;52.526;13.326;2024-03-08T00:27:50;27.98;;;10.43;;
15748;SDS011;7976;52.526;13.326;2024-03-08T00:30:21;27.60;;;10.15;;
15748;SDS011;7976;52.526;13.326;2024-03-08T00:32:50;30.17;;;10.43;;
15748;SDS011;7976;52.526;13.326;2024-03-08T00:35:18;25.10;;;9.50;;
15748;SDS011;7976;52.526;13.326;2024-03-08T00:37:45;28.05;;;9.88;;
15748;SDS011;7976;52.526;13.326;2024-03-08T00:40:12;27.30;;;9.57;;
15748;SDS011;7976;52.526;13.326;2024-03-08T00:42:40;24.77;;;8.73;;
15748;SDS011;7976;52.526;13.326;2024-03-08T00:45:09;25.02;;;9.75;;
15748;SDS011;7976;52.526;13.326;2024-03-08T00:47:36;24.58;;;9.45;;
15748;SDS011;7976;52.526;13.326;2024-03-08T00:50:04;29.00;;;10.32;;
15748;SDS011;7976;52.526;13.326;2024-03-08T00:52:34;31.65;;;10.35;;
15748;SDS011;7976;52.526;13.326;2024-03-08T00:55:01;24.95;;;9.25;;
15748;SDS011;7976;52.526;13.326;2024-03-08T00:57:28;26.55;;;9.25;;
15748;SDS011;7976;52.526;13.326;2024-03-08T00:59:55;23.35;;;8.93;;
15748;SDS011;7976;52.526;13.326;2024-03-08T01:02:22;25.38;;;9.10;;
15748;SDS011;7976;52.526;13.326;2024-03-08T01:04:50;29.58;;;9.77;;
15748;SDS011;7976;52.526;13.326;2024-03-08T01:07:17;25.52;;;9.15;;
15748;SDS011;7976;52.526;13.326;2024-03-08T01:09:45;26.95;;;9.52;;
15748;SDS011;7976;52.526;13.326;2024-03-08T01:12:12;25.63;;;9.43;;
15748;SDS011;7976;52.526;13.326;2024-03-08T01:14:39;26.52;;;9.57;;
15748;SDS011;7976;52.526;13.326;2024-03-08T01:17:06;25.88;;;9.40;;
15748;SDS011;7976;52.526;13.326;2024-03-08T01:19:34;28.33;;;8.43;;
15748;SDS011;7976;52.526;13.326;2024-03-08T01:22:02;26.73;;;8.52;;
15748;SDS011;7976;52.526;13.326;2024-03-08T01:24:28;31.15;;;9.80;;
15748;SDS011;7976;52.526;13.326;2024-03-08T01:26:57;27.38;;;9.23;;
15748;SDS011;7976;52.526;13.326;2024-03-08T01:29:24;24.92;;;9.88;;
15748;SDS011;7976;52.526;13.326;2024-03-08T01:31:51;25.23;;;8.80;;
15748;SDS011;7976;52.526;13.326;2024-03-08T01:34:19;22.17;;;8.52;;
15748;SDS011;7976;52.526;13.326;2024-03-08T01:36:46;31.60;;;9.93;;
15748;SDS011;7976;52.526;13.326;2024-03-08T01:39:13;29.83;;;9.50;;
15748;SDS011;7976;52.526;13.326;2024-03-08T01:41:40;28.42;;;9.52;;
15748;SDS011;7976;52.526;13.326;2024-03-08T01:44:08;28.70;;;9.05;;
15748;SDS011;7976;52.526;13.326;2024-03-08T01:46:35;21.95;;;9.13;;
15748;SDS011;7976;52.526;13.326;2024-03-08T01:49:02;25.35;;;9.05;;
15748;SDS011;7976;52.526;13.326;2024-03-08T01:51:30;29.10;;;9.02;;
15748;SDS011;7976;52.526;13.326;2024-03-08T01:53:57;28.35;;;9.32;;
15748;SDS011;7976;52.526;13.326;2024-03-08T01:56:27;24.35;;;9.05;;
15748;SDS011;7976;52.526;13.326;2024-03-08T01:58:56;26.15;;;9.07;;
15748;SDS011;7976;52.526;13.326;2024-03-08T02:01:26;26.73;;;9.25;;
15748;SDS011;7976;52.526;13.326;2024-03-08T02:03:54;26.05;;;8.10;;
15748;SDS011;7976;52.526;13.326;2024-03-08T02:06:21;26.00;;;9.07;;
15748;SDS011;7976;52.526;13.326;2024-03-08T02:08:48;28.27;;;9.05;;
15748;SDS011;7976;52.526;13.326;2024-03-08T02:11:15;25.02;;;7.82;;
15748;SDS011;7976;52.526;13.326;2024-03-08T02:13:44;26.17;;;9.35;;
15748;SDS011;7976;52.526;13.326;2024-03-08T02:16:11;25.15;;;9.95;;
15748;SDS011;7976;52.526;13.326;2024-03-08T02:18:40;27.85;;;9.30;;
15748;SDS011;7976;52.526;13.326;2024-03-08T02:21:09;30.10;;;9.63;;
15748;SDS011;7976;52.526;13.326;2024-03-08T02:23:36;26.70;;;9.43;;
15748;SDS011;7976;52.526;13.326;2024-03-08T02:26:03;24.83;;;8.85;;
15748;SDS011;7976;52.526;13.326;2024-03-08T02:28:33;28.00;;;9.45;;
15748;SDS011;7976;52.526;13.326;2024-03-08T02:31:00;25.55;;;8.88;;
15748;SDS011;7976;52.526;13.326;2024-03-08T02:33:27;27.90;;;9.95;;
15748;SDS011;7976;52.526;13.326;2024-03-08T02:35:54;28.23;;;9.32;;
15748;SDS011;7976;52.526;13.326;2024-03-08T02:38:23;28.95;;;9.50;;
15748;SDS011;7976;52.526;13.326;2024-03-08T02:40:51;25.90;;;9.23;;
15748;SDS011;7976;52.526;13.326;2024-03-08T02:43:20;25.42;;;9.52;;
15748;SDS011;7976;52.526;13.326;2024-03-08T02:45:49;27.80;;;8.65;;
15748;SDS011;7976;52.526;13.326;2024-03-08T02:48:19;22.77;;;8.55;;
15748;SDS011;7976;52.526;13.326;2024-03-08T02:50:47;24.73;;;8.80;;
15748;SDS011;7976;52.526;13.326;2024-03-08T02:53:16;26.50;;;8.60;;
15748;SDS011;7976;52.526;13.326;2024-03-08T02:55:45;25.63;;;8.48;;
15748;SDS011;7976;52.526;13.326;2024-03-08T02:58:12;25.70;;;10.00;;
15748;SDS011;7976;52.526;13.326;2024-03-08T03:00:40;22.88;;;9.15;;
15748;SDS011;7976;52.526;13.326;2024-03-08T03:03:08;21.77;;;7.90;;
15748;SDS011;7976;52.526;13.326;2024-03-08T03:05:35;25.35;;;9.05;;
15748;SDS011;7976;52.526;13.326;2024-03-08T03:08:02;23.25;;;8.60;;
15748;SDS011;7976;52.526;13.326;2024-03-08T03:10:33;25.05;;;8.10;;
15748;SDS011;7976;52.526;13.326;2024-03-08T03:13:02;28.52;;;9.50;;
15748;SDS011;7976;52.526;13.326;2024-03-08T03:15:33;28.08;;;9.10;;
15748;SDS011;7976;52.526;13.326;2024-03-08T03:18:01;30.45;;;9.02;;
15748;SDS011;7976;52.526;13.326;2024-03-08T03:20:29;23.25;;;8.98;;
15748;SDS011;7976;52.526;13.326;2024-03-08T03:22:58;26.95;;;8.63;;
15748;SDS011;7976;52.526;13.326;2024-03-08T03:25:28;26.00;;;9.60;;
15748;SDS011;7976;52.526;13.326;2024-03-08T03:27:59;26.38;;;9.25;;
15748;SDS011;7976;52.526;13.326;2024-03-08T03:30:30;26.65;;;8.80;;
15748;SDS011;7976;52.526;13.326;2024-03-08T03:32:59;26.55;;;9.10;;
15748;SDS011;7976;52.526;13.326;2024-03-08T03:35:27;24.85;;;9.20;;
15748;SDS011;7976;52.526;13.326;2024-03-08T03:37:55;25.27;;;9.00;;
15748;SDS011;7976;52.526;13.326;2024-03-08T03:40:30;26.92;;;9.73;;
15748;SDS011;7976;52.526;13.326;2024-03-08T03:42:57;24.23;;;8.50;;
15748;SDS011;7976;52.526;13.326;2024-03-08T03:45:25;29.95;;;11.02;;
15748;SDS011;7976;52.526;13.326;2024-03-08T03:47:53;27.05;;;10.00;;
15748;SDS011;7976;52.526;13.326;2024-03-08T03:50:21;33.78;;;12.93;;
15748;SDS011;7976;52.526;13.326;2024-03-08T03:52:48;26.63;;;9.32;;
15748;SDS011;7976;52.526;13.326;2024-03-08T03:55:15;25.13;;;9.27;;
15748;SDS011;7976;52.526;13.326;2024-03-08T03:57:44;26.80;;;8.48;;
15748;SDS011;7976;52.526;13.326;2024-03-08T04:00:12;24.35;;;9.63;;
15748;SDS011;7976;52.526;13.326;2024-03-08T04:02:40;27.50;;;9.52;;
15748;SDS011;7976;52.526;13.326;2024-03-08T04:05:09;28.85;;;9.32;;
15748;SDS011;7976;52.526;13.326;2024-03-08T04:07:37;33.20;;;10.77;;
15748;SDS011;7976;52.526;13.326;2024-03-08T04:10:05;29.83;;;9.73;;
15748;SDS011;7976;52.526;13.326;2024-03-08T04:12:36;31.92;;;9.63;;
15748;SDS011;7976;52.526;13.326;2024-03-08T04:15:04;26.63;;;9.48;;
15748;SDS011;7976;52.526;13.326;2024-03-08T04:17:32;33.30;;;10.88;;
15748;SDS011;7976;52.526;13.326;2024-03-08T04:20:02;28.13;;;10.10;;
15748;SDS011;7976;52.526;13.326;2024-03-08T04:22:35;33.35;;;10.13;;
15748;SDS011;7976;52.526;13.326;2024-03-08T04:25:02;28.50;;;9.88;;
15748;SDS011;7976;52.526;13.326;2024-03-08T04:27:29;24.58;;;10.00;;
15748;SDS011;7976;52.526;13.326;2024-03-08T04:29:57;28.75;;;10.52;;
15748;SDS011;7976;52.526;13.326;2024-03-08T04:32:24;25.20;;;9.37;;
15748;SDS011;7976;52.526;13.326;2024-03-08T04:34:53;27.27;;;9.82;;
15748;SDS011;7976;52.526;13.326;2024-03-08T04:37:20;27.98;;;10.30;;
15748;SDS011;7976;52.526;13.326;2024-03-08T04:39:52;28.05;;;10.13;;
15748;SDS011;7976;52.526;13.326;2024-03-08T04:42:31;31.40;;;10.80;;
15748;SDS011;7976;52.526;13.326;2024-03-08T04:45:00;30.80;;;9.50;;
15748;SDS011;7976;52.526;13.326;2024-03-08T04:47:36;27.85;;;10.25;;
15748;SDS011;7976;52.526;13.326;2024-03-08T04:50:03;26.90;;;9.93;;
15748;SDS011;7976;52.526;13.326;2024-03-08T04:52:31;37.03;;;13.93;;
15748;SDS011;7976;52.526;13.326;2024-03-08T04:54:59;31.35;;;11.55;;
15748;SDS011;7976;52.526;13.326;2024-03-08T04:57:26;27.08;;;9.15;;
15748;SDS011;7976;52.526;13.326;2024-03-08T04:59:53;27.02;;;9.63;;
15748;SDS011;7976;52.526;13.326;2024-03-08T05:02:20;30.70;;;9.63;;
15748;SDS011;7976;52.526;13.326;2024-03-08T05:04:48;30.20;;;10.73;;
15748;SDS011;7976;52.526;13.326;2024-03-08T05:07:16;23.98;;;8.98;;
15748;SDS011;7976;52.526;13.326;2024-03-08T05:09:44;31.25;;;13.40;;
15748;SDS011;7976;52.526;13.326;2024-03-08T05:12:17;27.45;;;10.57;;
15748;SDS011;7976;52.526;13.326;2024-03-08T05:14:45;33.10;;;10.18;;
15748;SDS011;7976;52.526;13.326;2024-03-08T05:17:16;31.83;;;9.38;;
15748;SDS011;7976;52.526;13.326;2024-03-08T05:19:43;29.60;;;10.25;;
15748;SDS011;7976;52.526;13.326;2024-03-08T05:22:11;31.05;;;10.45;;
15748;SDS011;7976;52.526;13.326;2024-03-08T05:24:38;28.80;;;10.45;;
15748;SDS011;7976;52.526;13.326;2024-03-08T05:27:05;29.17;;;10.20;;
15748;SDS011;7976;52.526;13.326;2024-03-08T05:29:34;31.35;;;10.05;;
15748;SDS011;7976;52.526;13.326;2024-03-08T05:32:05;30.45;;;10.63;;
15748;SDS011;7976;52.526;13.326;2024-03-08T05:34:36;34.17;;;14.27;;
15748;SDS011;7976;52.526;13.326;2024-03-08T05:37:03;36.00;;;15.07;;
15748;SDS011;7976;52.526;13.326;2024-03-08T05:39:32;38.42;;;15.13;;
15748;SDS011;7976;52.526;13.326;2024-03-08T05:41:59;29.95;;;10.18;;
15748;SDS011;7976;52.526;13.326;2024-03-08T05:44:26;24.77;;;10.18;;
15748;SDS011;7976;52.526;13.326;2024-03-08T05:46:55;30.52;;;11.32;;
15748;SDS011;7976;52.526;13.326;2024-03-08T05:49:22;37.47;;;14.40;;
15748;SDS011;7976;52.526;13.326;2024-03-08T05:51:50;36.25;;;11.32;;
15748;SDS011;7976;52.526;13.326;2024-03-08T05:54:17;39.45;;;14.43;;
15748;SDS011;7976;52.526;13.326;2024-03-08T05:56:43;30.23;;;10.30;;
15748;SDS011;7976;52.526;13.326;2024-03-08T05:59:12;27.00;;;9.82;;
15748;SDS011;7976;52.526;13.326;2024-03-08T06:01:39;27.42;;;9.35;;
15748;SDS011;7976;52.526;13.326;2024-03-08T06:04:10;28.38;;;10.05;;
15748;SDS011;7976;52.526;13.326;2024-03-08T06:06:49;37.95;;;14.57;;
15748;SDS011;7976;52.526;13.326;2024-03-08T06:09:16;34.92;;;14.63;;
15748;SDS011;7976;52.526;13.326;2024-03-08T06:11:48;31.90;;;11.23;;
15748;SDS011;7976;52.526;13.326;2024-03-08T06:14:15;30.73;;;10.50;;
15748;SDS011;7976;52.526;13.326;2024-03-08T06:16:43;29.77;;;10.20;;
15748;SDS011;7976;52.526;13.326;2024-03-08T06:19:12;33.85;;;11.18;;
15748;SDS011;7976;52.526;13.326;2024-03-08T06:21:40;33.75;;;10.40;;
15748;SDS011;7976;52.526;13.326;2024-03-08T06:24:07;26.88;;;10.32;;
15748;SDS011;7976;52.526;13.326;2024-03-08T06:26:34;26.25;;;10.85;;
15748;SDS011;7976;52.526;13.326;2024-03-08T06:29:02;33.20;;;11.27;;
15748;SDS011;7976;52.526;13.326;2024-03-08T06:31:31;28.88;;;10.73;;
15748;SDS011;7976;52.526;13.326;2024-03-08T06:33:58;29.55;;;10.38;;
15748;SDS011;7976;52.526;13.326;2024-03-08T06:36:28;28.23;;;9.38;;
15748;SDS011;7976;52.526;13.326;2024-03-08T06:38:55;29.00;;;9.77;;
15748;SDS011;7976;52.526;13.326;2024-03-08T06:41:23;37.63;;;13.43;;
15748;SDS011;7976;52.526;13.326;2024-03-08T06:43:50;30.95;;;10.68;;
15748;SDS011;7976;52.526;13.326;2024-03-08T06:46:22;37.35;;;13.85;;
15748;SDS011;7976;52.526;13.326;2024-03-08T06:48:49;33.33;;;10.63;;
15748;SDS011;7976;52.526;13.326;2024-03-08T06:51:16;33.17;;;10.77;;
15748;SDS011;7976;52.526;13.326;2024-03-08T06:53:44;27.80;;;11.13;;
15748;SDS011;7976;52.526;13.326;2024-03-08T06:56:11;35.45;;;12.10;;
15748;SDS011;7976;52.526;13.326;2024-03-08T06:58:38;29.55;;;10.70;;
15748;SDS011;7976;52.526;13.326;2024-03-08T07:01:06;30.63;;;11.05;;
15748;SDS011;7976;52.526;13.326;2024-03-08T07:03:38;28.10;;;11.23;;
15748;SDS011;7976;52.526;13.326;2024-03-08T07:06:09;31.92;;;10.18;;
15748;SDS011;7976;52.526;13.326;2024-03-08T07:08:36;29.45;;;10.45;;
15748;SDS011;7976;52.526;13.326;2024-03-08T07:11:04;24.58;;;9.57;;
15748;SDS011;7976;52.526;13.326;2024-03-08T07:13:31;31.88;;;10.77;;
15748;SDS011;7976;52.526;13.326;2024-03-08T07:15:58;31.08;;;10.68;;
15748;SDS011;7976;52.526;13.326;2024-03-08T07:18:26;33.72;;;11.70;;
15748;SDS011;7976;52.526;13.326;2024-03-08T07:20:55;31.15;;;11.25;;
15748;SDS011;7976;52.526;13.326;2024-03-08T07:23:22;29.42;;;9.98;;
15748;SDS011;7976;52.526;13.326;2024-03-08T07:26:04;27.73;;;10.02;;
15748;SDS011;7976;52.526;13.326;2024-03-08T07:28:31;36.15;;;10.35;;
15748;SDS011;7976;52.526;13.326;2024-03-08T07:30:58;33.08;;;11.43;;
15748;SDS011;7976;52.526;13.326;2024-03-08T07:33:42;27.88;;;10.27;;
15748;SDS011;7976;52.526;13.326;2024-03-08T07:36:09;28.70;;;10.15;;
15748;SDS011;7976;52.526;13.326;2024-03-08T07:38:36;27.27;;;9.77;;
15748;SDS011;7976;52.526;13.326;2024-03-08T07:41:04;27.75;;;9.20;;
15748;SDS011;7976;52.526;13.326;2024-03-08T07:43:31;26.98;;;8.93;;
15748;SDS011;7976;52.526;13.326;2024-03-08T07:45:58;31.90;;;10.10;;
15748;SDS011;7976;52.526;13.326;2024-03-08T07:48:25;26.67;;;9.52;;
15748;SDS011;7976;52.526;13.326;2024-03-08T07:50:52;27.35;;;9.98;;
15748;SDS011;7976;52.526;13.326;2024-03-08T07:53:19;35.47;;;10.75;;
15748;SDS011;7976;52.526;13.326;2024-03-08T07:55:46;27.38;;;9.93;;
15748;SDS011;7976;52.526;13.326;2024-03-08T07:58:14;31.70;;;9.88;;
15748;SDS011;7976;52.526;13.326;2024-03-08T08:00:45;28.50;;;9.27;;
15748;SDS011;7976;52.526;13.326;2024-03-08T08:03:36;32.88;;;10.00;;
15748;SDS011;7976;52.526;13.326;2024-03-08T08:07:00;28.67;;;10.75;;
15748;SDS011;7976;52.526;13.326;2024-03-08T08:10:21;27.95;;;11.05;;
15748;SDS011;7976;52.526;13.326;2024-03-08T08:12:50;33.22;;;10.85;;
15748;SDS011;7976;52.526;13.326;2024-03-08T08:15:18;31.20;;;12.25;;
15748;SDS011;7976;52.526;13.326;2024-03-08T08:17:46;42.75;;;14.13;;
15748;SDS011;7976;52.526;13.326;2024-03-08T08:20:15;39.45;;;14.57;;
15748;SDS011;7976;52.526;13.326;2024-03-08T08:25:36;38.92;;;14.93;;
15748;SDS011;7976;52.526;13.326;2024-03-08T08:35:22;31.90;;;12.73;;
15748;SDS011;7976;52.526;13.326;2024-03-08T08:38:33;32.80;;;11.88;;
15748;SDS011;7976;52.526;13.326;2024-03-08T08:41:10;29.35;;;11.05;;
15748;SDS011;7976;52.526;13.326;2024-03-08T08:43:44;28.45;;;10.35;;
15748;SDS011;7976;52.526;13.326;2024-03-08T08:46:11;25.42;;;9.13;;
15748;SDS011;7976;52.526;13.326;2024-03-08T08:48:40;30.88;;;9.93;;
15748;SDS011;7976;52.526;13.326;2024-03-08T08:51:09;32.03;;;11.88;;
15748;SDS011;7976;52.526;13.326;2024-03-08T08:53:37;29.08;;;10.10;;
15748;SDS011;7976;52.526;13.326;2024-03-08T08:56:06;27.10;;;10.32;;
15748;SDS011;7976;52.526;13.326;2024-03-08T08:58:33;35.58;;;12.07;;
15748;SDS011;7976;52.526;13.326;2024-03-08T09:01:05;28.33;;;10.90;;
15748;SDS011;7976;52.526;13.326;2024-03-08T09:03:41;27.13;;;11.57;;
15748;SDS011;7976;52.526;13.326;2024-03-08T09:06:16;25.83;;;10.90;;
15748;SDS011;7976;52.526;13.326;2024-03-08T09:09:07;31.77;;;11.63;;
15748;SDS011;7976;52.526;13.326;2024-03-08T09:11:36;33.67;;;11.50;;
15748;SDS011;7976;52.526;13.326;2024-03-08T09:14:07;29.83;;;12.35;;
15748;SDS011;7976;52.526;13.326;2024-03-08T09:16:37;32.35;;;12.23;;
15748;SDS011;7976;52.526;13.326;2024-03-08T09:19:12;34.70;;;12.52;;
15748;SDS011;7976;52.526;13.326;2024-03-08T09:21:44;29.83;;;12.30;;
15748;SDS011;7976;52.526;13.326;2024-03-08T09:24:12;35.22;;;12.32;;
15748;SDS011;7976;52.526;13.326;2024-03-08T09:26:39;28.98;;;12.40;;
15748;SDS011;7976;52.526;13.326;2024-03-08T09:29:07;30.90;;;12.98;;
15748;SDS011;7976;52.526;13.326;2024-03-08T09:31:35;30.23;;;12.68;;
15748;SDS011;7976;52.526;13.326;2024-03-08T09:34:03;34.90;;;13.13;;
15748;SDS011;7976;52.526;13.326;2024-03-08T09:36:31;32.20;;;12.52;;
15748;SDS011;7976;52.526;13.326;2024-03-08T09:38:58;29.15;;;11.80;;
15748;SDS011;7976;52.526;13.326;2024-03-08T09:41:25;33.67;;;12.98;;
15748;SDS011;7976;52.526;13.326;2024-03-08T09:43:52;31.15;;;12.43;;
15748;SDS011;7976;52.526;13.326;2024-03-08T09:46:21;30.58;;;12.27;;
15748;SDS011;7976;52.526;13.326;2024-03-08T09:48:49;30.65;;;11.38;;
15748;SDS011;7976;52.526;13.326;2024-03-08T09:51:16;32.63;;;12.40;;
15748;SDS011;7976;52.526;13.326;2024-03-08T09:53:50;28.08;;;12.55;;
15748;SDS011;7976;52.526;13.326;2024-03-08T09:56:18;26.45;;;11.55;;
15748;SDS011;7976;52.526;13.326;2024-03-08T09:58:46;30.23;;;11.88;;
15748;SDS011;7976;52.526;13.326;2024-03-08T10:01:45;29.50;;;11.77;;
15748;SDS011;7976;52.526;13.326;2024-03-08T10:04:12;29.52;;;12.73;;
15748;SDS011;7976;52.526;13.326;2024-03-08T10:06:40;30.52;;;12.45;;
15748;SDS011;7976;52.526;13.326;2024-03-08T10:09:10;27.50;;;12.02;;
15748;SDS011;7976;52.526;13.326;2024-03-08T10:11:40;35.50;;;13.52;;
15748;SDS011;7976;52.526;13.326;2024-03-08T10:14:14;27.88;;;12.40;;
15748;SDS011;7976;52.526;13.326;2024-03-08T10:16:42;33.45;;;13.35;;
15748;SDS011;7976;52.526;13.326;2024-03-08T10:19:09;28.85;;;12.38;;
15748;SDS011;7976;52.526;13.326;2024-03-08T10:21:46;31.52;;;11.43;;
15748;SDS011;7976;52.526;13.326;2024-03-08T10:24:16;25.70;;;11.38;;
15748;SDS011;7976;52.526;13.326;2024-03-08T10:26:43;31.80;;;11.43;;
15748;SDS011;7976;52.526;13.326;2024-03-08T10:29:11;31.60;;;11.98;;
15748;SDS011;7976;52.526;13.326;2024-03-08T10:31:42;28.58;;;10.88;;
15748;SDS011;7976;52.526;13.326;2024-03-08T10:34:10;31.40;;;12.73;;
15748;SDS011;7976;52.526;13.326;2024-03-08T10:36:37;27.92;;;11.15;;
15748;SDS011;7976;52.526;13.326;2024-03-08T10:39:06;28.15;;;11.80;;
15748;SDS011;7976;52.526;13.326;2024-03-08T10:41:49;26.10;;;11.10;;
15748;SDS011;7976;52.526;13.326;2024-03-08T10:44:45;27.27;;;10.80;;
15748;SDS011;7976;52.526;13.326;2024-03-08T10:47:25;29.80;;;11.07;;
15748;SDS011;7976;52.526;13.326;2024-03-08T10:49:59;27.88;;;11.00;;
15748;SDS011;7976;52.526;13.326;2024-03-08T10:52:38;26.10;;;10.82;;
15748;SDS011;7976;52.526;13.326;2024-03-08T10:55:06;26.67;;;10.80;;
15748;SDS011;7976;52.526;13.326;2024-03-08T10:57:38;31.55;;;11.40;;
15748;SDS011;7976;52.526;13.326;2024-03-08T11:00:07;26.25;;;10.15;;
15748;SDS011;7976;52.526;13.326;2024-03-08T11:02:37;24.63;;;10.85;;
15748;SDS011;7976;52.526;13.326;2024-03-08T11:05:04;25.40;;;10.48;;
15748;SDS011;7976;52.526;13.326;2024-03-08T11:07:40;22.33;;;8.95;;
15748;SDS011;7976;52.526;13.326;2024-03-08T11:10:18;24.10;;;10.05;;
15748;SDS011;7976;52.526;13.326;2024-03-08T11:12:46;27.13;;;9.68;;
15748;SDS011;7976;52.526;13.326;2024-03-08T11:15:13;23.55;;;9.60;;
15748;SDS011;7976;52.526;13.326;2024-03-08T11:17:47;28.98;;;10.70;;
15748;SDS011;7976;52.526;13.326;2024-03-08T11:20:15;25.83;;;10.00;;
15748;SDS011;7976;52.526;13.326;2024-03-08T11:22:49;25.10;;;10.77;;
15748;SDS011;7976;52.526;13.326;2024-03-08T11:25:33;28.40;;;10.55;;
15748;SDS011;7976;52.526;13.326;2024-03-08T11:28:14;31.75;;;11.25;;
15748;SDS011;7976;52.526;13.326;2024-03-08T11:30:44;27.52;;;10.63;;
15748;SDS011;7976;52.526;13.326;2024-03-08T11:33:13;29.35;;;11.15;;
15748;SDS011;7976;52.526;13.326;2024-03-08T11:35:41;24.20;;;9.63;;
15748;SDS011;7976;52.526;13.326;2024-03-08T11:38:11;26.92;;;10.70;;
15748;SDS011;7976;52.526;13.326;2024-03-08T11:40:43;25.33;;;9.45;;
15748;SDS011;7976;52.526;13.326;2024-03-08T11:43:15;21.65;;;9.43;;
15748;SDS011;7976;52.526;13.326;2024-03-08T11:45:43;21.48;;;9.68;;
15748;SDS011;7976;52.526;13.326;2024-03-08T11:48:10;26.48;;;10.00;;
15748;SDS011;7976;52.526;13.326;2024-03-08T11:50:38;22.33;;;9.35;;
15748;SDS011;7976;52.526;13.326;2024-03-08T11:53:05;25.10;;;10.07;;
15748;SDS011;7976;52.526;13.326;2024-03-08T11:55:33;27.63;;;10.00;;
15748;SDS011;7976;52.526;13.326;2024-03-08T11:58:05;25.90;;;10.45;;
15748;SDS011;7976;52.526;13.326;2024-03-08T12:00:35;26.05;;;10.77;;
15748;SDS011;7976;52.526;13.326;2024-03-08T12:03:06;24.95;;;10.48;;
15748;SDS011;7976;52.526;13.326;2024-03-08T12:05:35;24.70;;;11.27;;
15748;SDS011;7976;52.526;13.326;2024-03-08T12:08:03;23.92;;;9.20;;
15748;SDS011;7976;52.526;13.326;2024-03-08T12:10:32;23.38;;;9.48;;
15748;SDS011;7976;52.526;13.326;2024-03-08T12:13:00;27.48;;;11.00;;
15748;SDS011;7976;52.526;13.326;2024-03-08T12:15:29;22.50;;;9.98;;
15748;SDS011;7976;52.526;13.326;2024-03-08T12:17:58;25.40;;;10.10;;
15748;SDS011;7976;52.526;13.326;2024-03-08T12:20:27;23.48;;;9.40;;
15748;SDS011;7976;52.526;13.326;2024-03-08T12:22:57;28.77;;;12.32;;
15748;SDS011;7976;52.526;13.326;2024-03-08T12:25:29;25.23;;;10.27;;
15748;SDS011;7976;52.526;13.326;2024-03-08T12:28:07;27.15;;;10.98;;
15748;SDS011;7976;52.526;13.326;2024-03-08T12:30:45;32.42;;;10.38;;
15748;SDS011;7976;52.526;13.326;2024-03-08T12:33:14;26.95;;;10.45;;
15748;SDS011;7976;52.526;13.326;2024-03-08T12:35:49;25.77;;;10.40;;
15748;SDS011;7976;52.526;13.326;2024-03-08T12:38:20;21.73;;;9.43;;
15748;SDS011;7976;52.526;13.326;2024-03-08T12:40:50;26.02;;;10.30;;
15748;SDS011;7976;52.526;13.326;2024-03-08T12:43:22;28.23;;;11.57;;
15748;SDS011;7976;52.526;13.326;2024-03-08T12:45:50;30.88;;;12.40;;
15748;SDS011;7976;52.526;13.326;2024-03-08T12:48:17;22.17;;;10.18;;
15748;SDS011;7976;52.526;13.326;2024-03-08T12:50:45;30.33;;;12.60;;
15748;SDS011;7976;52.526;13.326;2024-03-08T12:53:13;28.42;;;12.45;;
15748;SDS011;7976;52.526;13.326;2024-03-08T12:55:40;40.05;;;15.23;;
15748;SDS011;7976;52.526;13.326;2024-03-08T12:58:07;26.67;;;11.02;;
15748;SDS011;7976;52.526;13.326;2024-03-08T13:00:36;25.33;;;11.23;;
15748;SDS011;7976;52.526;13.326;2024-03-08T13:03:09;22.23;;;10.05;;
15748;SDS011;7976;52.526;13.326;2024-03-08T13:05:36;28.10;;;11.20;;
15748;SDS011;7976;52.526;13.326;2024-03-08T13:08:05;26.00;;;10.60;;
15748;SDS011;7976;52.526;13.326;2024-03-08T13:10:37;25.33;;;10.15;;
15748;SDS011;7976;52.526;13.326;2024-03-08T13:13:04;25.35;;;10.43;;
15748;SDS011;7976;52.526;13.326;2024-03-08T13:15:31;22.17;;;9.73;;
15748;SDS011;7976;52.526;13.326;2024-03-08T13:18:00;28.50;;;11.95;;
15748;SDS011;7976;52.526;13.326;2024-03-08T13:20:30;28.40;;;12.10;;
15748;SDS011;7976;52.526;13.326;2024-03-08T13:22:56;23.90;;;10.55;;
15748;SDS011;7976;52.526;13.326;2024-03-08T13:25:26;25.00;;;10.15;;
15748;SDS011;7976;52.526;13.326;2024-03-08T13:27:53;25.25;;;10.73;;
15748;SDS011;7976;52.526;13.326;2024-03-08T13:30:22;23.25;;;10.05;;
15748;SDS011;7976;52.526;13.326;2024-03-08T13:32:51;22.95;;;9.77;;
15748;SDS011;7976;52.526;13.326;2024-03-08T13:35:19;26.98;;;10.73;;
15748;SDS011;7976;52.526;13.326;2024-03-08T13:37:51;25.55;;;10.50;;
15748;SDS011;7976;52.526;13.326;2024-03-08T13:40:18;25.38;;;9.85;;
15748;SDS011;7976;52.526;13.326;2024-03-08T13:42:46;21.00;;;9.18;;
15748;SDS011;7976;52.526;13.326;2024-03-08T13:45:14;27.13;;;11.70;;
15748;SDS011;7976;52.526;13.326;2024-03-08T13:47:43;23.90;;;10.13;;
15748;SDS011;7976;52.526;13.326;2024-03-08T13:50:11;25.65;;;9.85;;
15748;SDS011;7976;52.526;13.326;2024-03-08T13:52:38;26.25;;;10.07;;
15748;SDS011;7976;52.526;13.326;2024-03-08T13:55:07;25.67;;;10.45;;
15748;SDS011;7976;52.526;13.326;2024-03-08T13:57:37;23.60;;;10.52;;
15748;SDS011;7976;52.526;13.326;2024-03-08T14:00:04;23.48;;;10.13;;
15748;SDS011;7976;52.526;13.326;2024-03-08T14:02:38;26.33;;;9.60;;
15748;SDS011;7976;52.526;13.326;2024-03-08T14:05:06;29.02;;;11.65;;
15748;SDS011;7976;52.526;13.326;2024-03-08T14:07:34;30.40;;;12.77;;
15748;SDS011;7976;52.526;13.326;2024-03-08T14:10:01;25.90;;;9.98;;
15748;SDS011;7976;52.526;13.326;2024-03-08T14:12:29;23.77;;;9.57;;
15748;SDS011;7976;52.526;13.326;2024-03-08T14:14:57;23.60;;;8.93;;
15748;SDS011;7976;52.526;13.326;2024-03-08T14:17:24;24.88;;;9.25;;
15748;SDS011;7976;52.526;13.326;2024-03-08T14:19:52;21.67;;;9.05;;
15748;SDS011;7976;52.526;13.326;2024-03-08T14:22:19;23.20;;;10.02;;
15748;SDS011;7976;52.526;13.326;2024-03-08T14:24:46;21.85;;;10.20;;
15748;SDS011;7976;52.526;13.326;2024-03-08T14:27:14;21.70;;;8.90;;
15748;SDS011;7976;52.526;13.326;2024-03-08T14:29:44;23.13;;;10.60;;
15748;SDS011;7976;52.526;13.326;2024-03-08T14:32:11;21.92;;;8.50;;
15748;SDS011;7976;52.526;13.326;2024-03-08T14:34:40;19.48;;;8.98;;
15748;SDS011;7976;52.526;13.326;2024-03-08T14:37:08;23.38;;;9.18;;
15748;SDS011;7976;52.526;13.326;2024-03-08T14:39:37;23.42;;;9.27;;
15748;SDS011;7976;52.526;13.326;2024-03-08T14:42:03;28.33;;;11.27;;
15748;SDS011;7976;52.526;13.326;2024-03-08T14:44:33;23.75;;;9.77;;
15748;SDS011;7976;52.526;13.326;2024-03-08T14:47:06;21.98;;;9.35;;
15748;SDS011;7976;52.526;13.326;2024-03-08T14:49:48;19.60;;;8.98;;